Apache Creek, New Mexico
Current Conditions -  °F | °C
As of 8:15 PM on Monday 26 Jan 2015 (Local Time) from KJTC Reporting Station
Clear Clear  
Wind Chill: 41°   Ceiling: Unl
Heat Index: 41°   Visibility: 10mi
Dew Point: 23°   Wind: 3mph
Humidity: 49%   Direction: 120°ESE
Pressure: 30.35"   Gusts: NA
Location:  33.6665°N, 108.765°W
Report Text: KJTC 270315Z AUTO 12003KT 10SM CLR 05/M05 A3035 RMK AO2
Loading
Personal Weather Stations






























Interactive Weather Map New forecast layout! Learn more

10-Day Weather Forecast

Advertisements
Track Severe Weather on mobile